• Join FlightAware (Why Join?)
  • Login
  • US Flag 
01:25PM EDT


 

Airport Tracker/Info


-or-


 

Live Flight TrackerFlight Track Log ✈ UAL258 ✈ 13-May-2013 ✈ KBWI - KORD

Flight Track Log - Related Links

Times and Time Zones

All times are in EDT time to prevent confusion due to time zone crossing. See the UAL258 flight status page for this flight to view local times or setup timezone preferences in your user account.

Time Position Orientation Groundspeed Altitude Reporting Facility
EDT Latitude Longitude Course Direction KTS MPH feet Rate Location/Type
06:05AM 39.1833 -76.7167 211° Southwest 149 171 1,700  Level Potomac TRACON
06:06AM 39.1833 -76.7667 270° West 189 217 3,600 2,460 Climbing Potomac TRACON
06:07AM 39.2000 -77.0136 270° West  Level FlightAware Approximate
06:08AM 39.2000 -77.1326 270° West  Level FlightAware Approximate
06:08AM 39.2083 -76.9175 282° West 227 261 8,800  Level Washington Center
06:09AM 39.1341 -77.2050 211° Southwest  Level FlightAware Approximate
06:09AM 39.2114 -77.0114 272° West 246 283 11,000  Level Washington Center
06:10AM 39.0552 -77.2664 211° Southwest  Level FlightAware Approximate
06:10AM 39.2103 -77.1158 269° West 278 320 13,400  Level Washington Center
06:11AM 39.1592 -77.1978 231° Southwest 287 330 15,900 2,220 Climbing Washington Center
06:12AM 39.0997 -77.2739 225° Southwest 287 330 17,900 1,980 Climbing Washington Center
06:13AM 39.0814 -77.3858 258° West 299 344 20,000 1,920 Climbing Washington Center
06:14AM 39.0650 -77.5003 260° West 316 364 21,800 1,920 Climbing Washington Center
06:15AM 39.0486 -77.6175 260° West 335 386 23,900 1,860 Climbing Washington Center
06:16AM 39.0317 -77.7481 261° West 335 386 25,600 1,500 Climbing Washington Center
06:17AM 39.0131 -77.8544 257° West 335 386 26,900 1,140 Climbing Washington Center
06:18AM 38.9961 -77.9742 260° West 335 386 28,000 1,080 Climbing Washington Center
06:19AM 38.9769 -78.0961 259° West 340 391 29,100 1,020 Climbing Washington Center
06:20AM 38.9619 -78.2186 261° West 345 397 30,100 900 Climbing Washington Center
06:21AM 38.9631 -78.3467 271° West 356 410 31,000 1,200 Climbing Washington Center
06:22AM 38.9686 -78.4750 273° West 356 410 32,600 900 Climbing Washington Center
06:23AM 38.9736 -78.6033 273° West 361 415 32,900 600 Climbing Washington Center
06:24AM 38.9767 -78.7344 272° West 367 422 33,900 780 Climbing Washington Center
06:25AM 38.9794 -78.8653 272° West 367 422 34,500 540 Climbing Washington Center
06:26AM 38.9839 -79.0017 272° West 367 422 35,000 660 Climbing Washington Center
06:27AM 38.9883 -79.1356 272° West 372 428 35,900 480 Climbing Washington Center
06:28AM 38.9925 -79.2719 272° West 382 440 36,000  Climbing Washington Center
06:29AM 38.9947 -79.4083 271° West 382 440 36,000  Level Washington Center
06:30AM 38.9986 -79.5447 272° West 387 445 36,100  Climbing Washington Center
06:31AM 39.0017 -79.7000 271° West 393 452 36,000 -120 Descending Washington Center
06:32AM 39.0033 -79.8336 271° West 388 447 35,900  Descending Washington Center
06:34AM 39.0050 -80.1131 271° West 398 458 36,000 60 Climbing Indianapolis Center
06:35AM 39.0061 -80.2581 271° West 405 466 36,100  Climbing Indianapolis Center
06:36AM 39.0228 -80.4294 277° West 404 465 36,100 -60 Level Indianapolis Center
06:37AM 39.0806 -80.5572 300° West 409 471 36,000 -60 Descending Indianapolis Center
06:38AM 39.1372 -80.6856 300° West 412 474 36,000  Level Indianapolis Center
06:39AM 39.1928 -80.8131 299° West 410 472 36,000  Level Indianapolis Center
06:40AM 39.2492 -80.9414 300° West 412 474 36,000  Level Indianapolis Center
06:41AM 39.3047 -81.0692 299° West 410 472 36,000  Level Indianapolis Center
06:42AM 39.3614 -81.1983 300° West 414 476 36,000  Level Indianapolis Center
06:43AM 39.4161 -81.3269 299° West 411 473 36,000  Level Indianapolis Center
06:44AM 39.4722 -81.4569 299° West 415 478 36,000  Level Indianapolis Center
06:45AM 39.5286 -81.5878 299° West 417 480 36,000  Level Indianapolis Center
06:46AM 39.5847 -81.7197 299° West 419 482 36,000  Level Indianapolis Center
06:47AM 39.6408 -81.8531 299° West 421 484 36,000  Level Indianapolis Center
06:48AM 39.6972 -81.9853 299° West 420 483 36,000  Level Indianapolis Center
06:49AM 39.7594 -82.1342 299° West 421 484 36,000  Level Indianapolis Center
06:50AM 39.8164 -82.2697 299° West 423 487 36,000  Level Indianapolis Center
06:51AM 39.8725 -82.4036 299° West 420 483 36,000 -60 Level Indianapolis Center
06:52AM 39.9272 -82.5356 298° West 414 476 35,900 -60 Descending Indianapolis Center
06:53AM 39.9822 -82.6689 298° West 414 476 35,900  Level Indianapolis Center
06:54AM 40.0361 -82.8000 298° West 410 472 35,900  Level Indianapolis Center
06:55AM 40.0908 -82.9322 298° West 412 474 35,900  Level Indianapolis Center
06:56AM 40.1450 -83.0661 298° West 415 478 35,900  Level Indianapolis Center
06:57AM 40.1992 -83.1994 298° West 415 478 36,000  Climbing Indianapolis Center
06:58AM 40.2531 -83.3336 298° West 416 479 35,900  Descending Indianapolis Center
06:59AM 40.3067 -83.4675 298° West 416 479 36,000  Climbing Indianapolis Center
07:00AM 40.3606 -83.6014 298° West 415 478 36,000 -60 Level Indianapolis Center
07:01AM 40.4139 -83.7361 298° West 414 476 35,900 -60 Descending Indianapolis Center
07:02AM 40.4686 -83.8706 298° West 415 478 35,900 -360 Level Indianapolis Center
07:03AM 40.5317 -84.0300 298° West 418 481 35,200 -840 Descending Indianapolis Center
07:05AM 40.5847 -84.1656 297° West 416 479 34,200 -660 Descending Indianapolis Center
07:06AM 40.6381 -84.3006 298° West 413 475 33,900 -120 Descending Indianapolis Center
07:06AM 40.6864 -84.4261 297° West 415 478 34,000  Climbing Chicago Center
07:07AM 40.7394 -84.5611 297° West 415 478 34,000  Level Chicago Center
07:09AM 40.7911 -84.6975 297° West 416 479 34,000  Level Chicago Center
07:10AM 40.8439 -84.8333 297° West 416 479 34,000  Level Chicago Center
07:11AM 40.8975 -84.9672 298° West 414 476 34,000  Level Chicago Center
07:12AM 40.9539 -85.0997 299° West 413 475 34,000  Level Chicago Center
07:13AM 41.0094 -85.2331 299° West 414 476 34,000 -1,080 Level Chicago Center
07:14AM 41.0658 -85.3647 300° West 411 473 31,900 -2,220 Descending Chicago Center
07:15AM 41.1183 -85.4917 299° West 398 458 29,600 -2,460 Descending Chicago Center
07:16AM 41.1694 -85.6153 299° West 386 444 26,900 -2,280 Descending Chicago Center
07:17AM 41.2181 -85.7347 298° West 373 429 25,000 -960 Descending Chicago Center
07:18AM 41.2692 -85.8589 299° West 378 435 25,000  Level Chicago Center
07:19AM 41.3017 -86.0000 287° West 394 453 25,000  Level Chicago Center
07:20AM 41.3328 -86.1422 286° West 398 458 25,000  Level Chicago Center
07:21AM 41.3708 -86.3097 287° West 394 453 25,000 -840 Level Chicago Center
07:22AM 41.4047 -86.4494 288° West 393 452 23,300 -2,460 Descending Chicago Center
07:23AM 41.4350 -86.5872 286° West 387 445 20,100 -2,880 Descending Chicago Center
07:24AM 41.4647 -86.7194 287° West 374 430 17,500 -2,580 Descending Chicago Center
07:25AM 41.4925 -86.8400 287° West 365 420 14,900 -2,580 Descending Chicago Center
07:26AM 41.5200 -86.9650 286° West 355 409 12,300 -1,440 Descending Chicago Center
07:27AM 41.5517 -87.1086 286° West 342 394 12,000 -240 Descending Chicago Center
07:27AM 41.5667 -87.1500 296° West 344 396 12,000  Level Chicago TRACON
07:28AM 41.6000 -87.2667 291° West 342 394 12,000  Level Chicago TRACON
07:29AM 41.6342 -87.3297 306° West 338 389 12,000 -60 Level Chicago Center
07:30AM 41.6931 -87.4258 309° West 338 389 11,900 -960 Descending Chicago Center
07:31AM 41.7500 -87.5206 309° West 332 382 10,100 -960 Descending Chicago Center
07:32AM 41.8069 -87.6117 310° West 324 373 10,000 -120 Descending Chicago Center
07:32AM 41.8333 -87.6500 313° West 283 326 10,000 -1,080 Level Chicago TRACON
07:33AM 41.8833 -87.6833 334° Northwest 255 293 8,600 -1,440 Descending Chicago TRACON
07:34AM 41.9500 -87.6833 360° North 254 292 7,200 -1,560 Descending Chicago TRACON